Time;durP1;ratioP1;P1;durP2;ratioP2;P2;SDS_P1;SDS_P2;PMS_P1;PMS_P2;Temp;Humidity;BMP_temperature;BMP_pressure;BME280_temperature;BME280_humidity;BME280_pressure;Samples;Min_cycle;Max_cycle;Signal;HPM_P1;HPM_P2
2022/02/21 00:02:04;;;;;;;3.22;2.10;;;;;;;;;;6242592;23;20018;-72
2022/02/21 00:04:31;;;;;;;2.20;1.70;;;;;;;;;;6216758;23;20032;-73
2022/02/21 00:06:58;;;;;;;2.60;2.40;;;;;;;;;;6242574;23;20008;-72
2022/02/21 00:09:24;;;;;;;2.33;2.08;;;;;;;;;;6243105;23;20098;-71
2022/02/21 00:11:50;;;;;;;4.53;2.10;;;;;;;;;;6242288;23;20078;-73
2022/02/21 00:14:16;;;;;;;2.58;2.20;;;;;;;;;;6243191;23;20012;-72
2022/02/21 00:16:42;;;;;;;2.30;2.10;;;;;;;;;;6242922;23;20012;-72
2022/02/21 00:19:08;;;;;;;2.88;2.60;;;;;;;;;;6216086;23;20058;-72
2022/02/21 00:21:33;;;;;;;4.57;1.90;;;;;;;;;;6216599;23;20039;-73
2022/02/21 00:23:59;;;;;;;1.90;1.80;;;;;;;;;;6243360;23;20421;-72
2022/02/21 00:26:25;;;;;;;5.90;2.50;;;;;;;;;;6216604;23;20111;-71
2022/02/21 00:28:52;;;;;;;2.97;2.40;;;;;;;;;;6216804;23;20018;-71
2022/02/21 00:31:18;;;;;;;3.70;2.63;;;;;;;;;;6216639;23;20019;-71
2022/02/21 00:33:44;;;;;;;2.20;2.00;;;;;;;;;;6216993;23;20430;-72
2022/02/21 00:36:10;;;;;;;3.60;2.38;;;;;;;;;;6245026;23;20024;-71
2022/02/21 00:38:35;;;;;;;2.65;2.25;;;;;;;;;;6217633;23;20039;-71
2022/02/21 00:41:01;;;;;;;3.20;1.88;;;;;;;;;;6217129;23;20477;-72
2022/02/21 00:43:27;;;;;;;2.80;2.60;;;;;;;;;;6244182;23;20008;-71
2022/02/21 00:45:54;;;;;;;7.50;2.47;;;;;;;;;;6243147;23;20012;-73
2022/02/21 00:48:20;;;;;;;5.07;2.70;;;;;;;;;;6216184;23;20459;-71
2022/02/21 00:50:46;;;;;;;5.65;2.67;;;;;;;;;;6242651;23;20020;-73
2022/02/21 00:53:12;;;;;;;3.03;2.08;;;;;;;;;;6243469;23;20481;-72
2022/02/21 00:55:38;;;;;;;2.63;2.45;;;;;;;;;;6242865;23;20020;-72
2022/02/21 00:58:04;;;;;;;2.17;1.98;;;;;;;;;;6215287;23;20039;-72
2022/02/21 01:00:30;;;;;;;3.28;2.30;;;;;;;;;;6242747;23;20016;-73
2022/02/21 01:02:56;;;;;;;1.88;1.77;;;;;;;;;;6215458;23;20334;-71
2022/02/21 01:05:22;;;;;;;3.78;2.30;;;;;;;;;;6242403;23;20091;-71
2022/02/21 01:07:49;;;;;;;2.65;2.03;;;;;;;;;;6215156;23;20015;-71
2022/02/21 01:10:15;;;;;;;3.92;2.45;;;;;;;;;;6216138;23;20020;-71
2022/02/21 01:12:41;;;;;;;5.72;3.00;;;;;;;;;;6216608;23;20008;-71
2022/02/21 01:15:07;;;;;;;2.85;2.53;;;;;;;;;;6216593;23;20530;-72
2022/02/21 01:17:33;;;;;;;4.88;2.78;;;;;;;;;;6243923;23;20016;-72
2022/02/21 01:20:03;;;;;;;2.85;2.63;;;;;;;;;;6242188;23;20102;-71
2022/02/21 01:22:30;;;;;;;3.85;2.60;;;;;;;;;;6242280;23;20012;-71
2022/02/21 01:24:56;;;;;;;6.00;2.83;;;;;;;;;;6215415;23;20020;-71
2022/02/21 01:27:23;;;;;;;3.28;2.03;;;;;;;;;;6190739;23;20008;-70
2022/02/21 01:29:49;;;;;;;3.35;2.17;;;;;;;;;;6215035;23;20423;-72
2022/02/21 01:32:16;;;;;;;3.28;2.15;;;;;;;;;;6215613;23;20020;-72
2022/02/21 01:34:42;;;;;;;4.68;2.90;;;;;;;;;;6241886;23;20008;-71
2022/02/21 01:37:08;;;;;;;4.22;2.90;;;;;;;;;;6241851;23;20520;-72
2022/02/21 01:39:34;;;;;;;3.00;2.17;;;;;;;;;;6190320;23;20114;-71
2022/02/21 01:42:00;;;;;;;3.22;2.25;;;;;;;;;;6215201;23;20012;-70
2022/02/21 01:44:39;;;;;;;5.40;2.40;;;;;;;;;;6242114;23;20038;-70
2022/02/21 01:47:05;;;;;;;2.80;2.55;;;;;;;;;;6241765;23;20505;-72
2022/02/21 01:49:31;;;;;;;2.65;2.30;;;;;;;;;;6242156;23;20522;-72
2022/02/21 01:51:57;;;;;;;2.92;2.40;;;;;;;;;;6241390;23;20019;-72
2022/02/21 01:54:23;;;;;;;5.88;2.70;;;;;;;;;;6242114;23;20646;-72
2022/02/21 01:56:49;;;;;;;2.50;2.28;;;;;;;;;;6241937;23;20063;-72
2022/02/21 01:59:15;;;;;;;6.88;2.90;;;;;;;;;;6190606;23;20012;-71
2022/02/21 02:01:40;;;;;;;4.45;2.72;;;;;;;;;;6241703;23;20467;-71
2022/02/21 02:04:06;;;;;;;3.22;2.78;;;;;;;;;;6241819;23;20415;-72
2022/02/21 02:06:32;;;;;;;2.78;2.58;;;;;;;;;;6242182;23;20464;-70
2022/02/21 02:08:58;;;;;;;3.58;2.50;;;;;;;;;;6241885;23;20045;-70
2022/02/21 02:11:27;;;;;;;4.15;2.60;;;;;;;;;;6215437;23;20048;-71
2022/02/21 02:13:53;;;;;;;3.40;3.00;;;;;;;;;;6242351;23;20086;-71
2022/02/21 02:16:19;;;;;;;3.70;2.65;;;;;;;;;;6241902;23;20091;-71
2022/02/21 02:18:46;;;;;;;2.42;2.22;;;;;;;;;;6215338;23;20008;-70
2022/02/21 02:21:15;;;;;;;4.22;2.95;;;;;;;;;;6214796;23;20015;-71
2022/02/21 02:23:40;;;;;;;4.00;2.80;;;;;;;;;;6215280;23;20008;-71
2022/02/21 02:26:06;;;;;;;4.13;2.80;;;;;;;;;;6215025;23;20082;-71
2022/02/21 02:28:34;;;;;;;3.83;2.40;;;;;;;;;;6242093;23;20369;-71
2022/02/21 02:30:59;;;;;;;2.13;2.00;;;;;;;;;;6189387;23;20023;-71
2022/02/21 02:33:25;;;;;;;2.65;2.45;;;;;;;;;;6215124;23;20467;-71
2022/02/21 02:35:51;;;;;;;5.43;2.97;;;;;;;;;;6241296;23;20030;-72
2022/02/21 02:38:17;;;;;;;3.92;2.33;;;;;;;;;;6241568;23;20102;-71
2022/02/21 02:40:43;;;;;;;4.65;2.65;;;;;;;;;;6214711;23;20020;-71
2022/02/21 02:43:12;;;;;;;4.90;2.78;;;;;;;;;;6214330;23;20012;-71
2022/02/21 02:45:42;;;;;;;5.68;3.10;;;;;;;;;;6215631;23;20012;-72
2022/02/21 02:48:08;;;;;;;2.80;2.60;;;;;;;;;;6241625;23;20008;-71
2022/02/21 02:50:33;;;;;;;4.03;2.70;;;;;;;;;;6215037;23;20024;-71
2022/02/21 02:53:00;;;;;;;2.78;2.15;;;;;;;;;;6241165;23;20008;-72
2022/02/21 02:55:26;;;;;;;5.30;3.17;;;;;;;;;;6242054;23;20019;-71
2022/02/21 02:57:52;;;;;;;4.22;3.05;;;;;;;;;;6241556;23;20361;-71
2022/02/21 03:00:17;;;;;;;5.50;2.90;;;;;;;;;;6215026;23;20016;-71
2022/02/21 03:02:43;;;;;;;3.95;3.28;;;;;;;;;;6241384;23;20102;-72
2022/02/21 03:05:09;;;;;;;3.63;2.83;;;;;;;;;;6214869;23;20016;-71
2022/02/21 03:07:35;;;;;;;4.13;3.35;;;;;;;;;;6215056;23;20008;-72
2022/02/21 03:10:01;;;;;;;3.38;3.08;;;;;;;;;;6241310;23;20412;-71
2022/02/21 03:12:27;;;;;;;4.40;3.42;;;;;;;;;;6214673;23;20030;-71
2022/02/21 03:14:52;;;;;;;3.40;3.00;;;;;;;;;;6241729;23;20059;-71
2022/02/21 03:17:18;;;;;;;3.83;3.22;;;;;;;;;;6241240;23;20012;-72
2022/02/21 03:19:44;;;;;;;6.88;3.20;;;;;;;;;;6241622;23;20095;-72
2022/02/21 03:22:10;;;;;;;6.18;2.97;;;;;;;;;;6240922;23;20011;-71
2022/02/21 03:24:36;;;;;;;3.05;2.53;;;;;;;;;;6241547;23;20077;-71
2022/02/21 03:27:03;;;;;;;5.15;2.85;;;;;;;;;;6214447;23;20094;-72
2022/02/21 03:29:29;;;;;;;4.13;2.75;;;;;;;;;;6242166;23;20083;-71
2022/02/21 03:31:54;;;;;;;5.50;3.17;;;;;;;;;;6241367;23;20048;-70
2022/02/21 03:34:20;;;;;;;5.15;2.90;;;;;;;;;;6242037;23;20042;-71
2022/02/21 03:36:46;;;;;;;3.25;2.72;;;;;;;;;;6216242;23;20038;-73
2022/02/21 03:39:11;;;;;;;3.13;2.65;;;;;;;;;;6191439;23;20345;-71
2022/02/21 03:41:37;;;;;;;2.60;2.40;;;;;;;;;;6243156;23;20091;-72
2022/02/21 03:44:03;;;;;;;5.20;3.60;;;;;;;;;;6216330;23;20045;-71
2022/02/21 03:46:29;;;;;;;5.35;3.25;;;;;;;;;;6243298;23;20012;-70
2022/02/21 03:48:55;;;;;;;4.38;2.60;;;;;;;;;;6243184;23;20012;-71
2022/02/21 03:51:21;;;;;;;7.85;3.30;;;;;;;;;;6191276;23;20027;-72
2022/02/21 03:53:47;;;;;;;4.80;3.58;;;;;;;;;;6243163;23;20019;-71
2022/02/21 03:56:12;;;;;;;7.38;3.55;;;;;;;;;;6242810;23;20031;-72
2022/02/21 03:58:41;;;;;;;4.60;2.80;;;;;;;;;;6216199;23;20017;-72
2022/02/21 04:01:07;;;;;;;2.92;2.70;;;;;;;;;;6191430;23;20024;-72
2022/02/21 04:03:33;;;;;;;4.72;2.40;;;;;;;;;;6217346;23;20008;-72
2022/02/21 04:05:59;;;;;;;3.72;3.33;;;;;;;;;;6191157;23;20016;-73
2022/02/21 04:08:25;;;;;;;3.65;2.70;;;;;;;;;;6243238;23;20428;-72
2022/02/21 04:10:51;;;;;;;4.03;2.90;;;;;;;;;;6216510;23;20028;-72
2022/02/21 04:13:16;;;;;;;3.90;2.70;;;;;;;;;;6216500;23;20023;-72
2022/02/21 04:15:42;;;;;;;5.38;3.25;;;;;;;;;;6243919;23;20026;-73
2022/02/21 04:18:08;;;;;;;2.45;2.28;;;;;;;;;;6216274;23;20008;-73
2022/02/21 04:20:34;;;;;;;5.75;4.05;;;;;;;;;;6216298;23;20421;-71
2022/02/21 04:23:00;;;;;;;6.45;2.95;;;;;;;;;;6191023;23;20012;-70
2022/02/21 04:25:26;;;;;;;3.38;2.95;;;;;;;;;;6217392;23;20016;-71
2022/02/21 04:27:52;;;;;;;7.00;3.40;;;;;;;;;;6243985;23;20019;-71
2022/02/21 04:30:19;;;;;;;3.67;3.05;;;;;;;;;;6243969;23;20827;-71
2022/02/21 04:32:46;;;;;;;4.22;3.05;;;;;;;;;;6244117;23;20330;-71
2022/02/21 04:35:12;;;;;;;6.60;4.13;;;;;;;;;;6243960;23;20019;-72
2022/02/21 04:37:38;;;;;;;7.53;4.50;;;;;;;;;;6217845;23;20368;-71
2022/02/21 04:40:04;;;;;;;3.85;2.70;;;;;;;;;;6192775;23;20110;-70
2022/02/21 04:42:30;;;;;;;6.05;3.85;;;;;;;;;;6217722;23;20023;-71
2022/02/21 04:44:56;;;;;;;6.80;3.50;;;;;;;;;;6243692;23;20070;-70
2022/02/21 04:47:22;;;;;;;4.93;3.65;;;;;;;;;;6217147;23;20015;-70
2022/02/21 04:49:48;;;;;;;4.25;3.85;;;;;;;;;;6192433;23;20012;-71
2022/02/21 04:52:14;;;;;;;6.22;3.20;;;;;;;;;;6243351;23;20043;-71
2022/02/21 04:54:40;;;;;;;4.25;3.20;;;;;;;;;;6244853;23;20008;-72
2022/02/21 04:57:06;;;;;;;4.03;3.38;;;;;;;;;;6243014;23;20096;-72
2022/02/21 04:59:31;;;;;;;3.70;3.38;;;;;;;;;;6217146;23;20008;-71
2022/02/21 05:02:00;;;;;;;6.85;3.78;;;;;;;;;;6216657;23;20012;-71
2022/02/21 05:04:26;;;;;;;3.85;3.15;;;;;;;;;;6242793;23;20008;-71
2022/02/21 05:06:52;;;;;;;3.28;2.95;;;;;;;;;;6215522;23;20020;-72
2022/02/21 05:09:18;;;;;;;5.72;4.13;;;;;;;;;;6242614;23;20012;-71
2022/02/21 05:11:44;;;;;;;6.40;3.60;;;;;;;;;;6242335;23;20158;-71
2022/02/21 05:14:10;;;;;;;4.07;2.88;;;;;;;;;;6215657;23;20039;-71
2022/02/21 05:16:36;;;;;;;4.97;3.97;;;;;;;;;;6242576;23;20043;-71
2022/02/21 05:19:02;;;;;;;14.23;5.22;;;;;;;;;;6190577;23;20012;-74
2022/02/21 05:21:28;;;;;;;5.50;4.40;;;;;;;;;;6215889;23;20036;-72
2022/02/21 05:23:54;;;;;;;9.00;4.68;;;;;;;;;;6242576;23;20012;-72
2022/02/21 05:26:20;;;;;;;10.05;5.18;;;;;;;;;;6215302;23;20022;-73
2022/02/21 05:28:46;;;;;;;9.30;4.43;;;;;;;;;;6242306;23;20074;-73
2022/02/21 05:31:12;;;;;;;9.40;4.43;;;;;;;;;;6241931;23;20020;-72
2022/02/21 05:33:37;;;;;;;4.88;3.83;;;;;;;;;;6214963;23;20014;-72
2022/02/21 05:36:04;;;;;;;9.07;4.40;;;;;;;;;;6214879;23;20476;-72
2022/02/21 05:38:30;;;;;;;6.82;4.38;;;;;;;;;;6190542;23;20411;-72
2022/02/21 05:40:56;;;;;;;6.78;4.07;;;;;;;;;;6242074;23;20500;-72
2022/02/21 05:43:22;;;;;;;7.07;3.92;;;;;;;;;;6214510;23;20062;-72
2022/02/21 05:45:47;;;;;;;7.85;4.53;;;;;;;;;;6242152;23;20058;-72
2022/02/21 05:48:13;;;;;;;5.53;4.57;;;;;;;;;;6214859;23;20042;-71
2022/02/21 05:50:39;;;;;;;7.22;5.13;;;;;;;;;;6215192;23;20058;-73
2022/02/21 05:53:05;;;;;;;3.08;2.75;;;;;;;;;;6241492;23;20012;-73
2022/02/21 05:55:30;;;;;;;4.65;3.30;;;;;;;;;;6242098;23;20019;-72
2022/02/21 05:57:57;;;;;;;7.22;4.28;;;;;;;;;;6214814;23;20515;-71
2022/02/21 06:00:23;;;;;;;5.97;3.47;;;;;;;;;;6214937;23;20094;-72
2022/02/21 06:02:49;;;;;;;5.45;4.43;;;;;;;;;;6241867;23;20349;-72
2022/02/21 06:05:15;;;;;;;5.03;3.72;;;;;;;;;;6241678;23;20019;-72
2022/02/21 06:07:41;;;;;;;4.82;4.38;;;;;;;;;;6241843;23;20012;-72
2022/02/21 06:10:07;;;;;;;6.07;5.47;;;;;;;;;;6241511;23;20070;-72
2022/02/21 06:12:33;;;;;;;8.63;4.70;;;;;;;;;;6242090;23;20360;-72
2022/02/21 06:14:59;;;;;;;7.55;5.03;;;;;;;;;;6190572;23;20099;-72
2022/02/21 06:17:25;;;;;;;6.38;5.22;;;;;;;;;;6215941;23;20018;-72
2022/02/21 06:19:50;;;;;;;7.28;5.70;;;;;;;;;;6215804;23;20460;-73
2022/02/21 06:22:17;;;;;;;5.07;4.13;;;;;;;;;;6214851;23;20011;-72
2022/02/21 06:24:46;;;;;;;4.35;3.92;;;;;;;;;;6241918;23;20052;-73
2022/02/21 06:27:12;;;;;;;8.60;5.55;;;;;;;;;;6214524;23;20012;-72
2022/02/21 06:29:38;;;;;;;7.53;5.13;;;;;;;;;;6242040;23;20015;-73
2022/02/21 06:32:04;;;;;;;9.85;6.00;;;;;;;;;;6241540;23;20047;-72
2022/02/21 06:34:30;;;;;;;5.80;5.30;;;;;;;;;;6241561;23;20008;-72
2022/02/21 06:36:56;;;;;;;8.00;5.68;;;;;;;;;;6214624;23;20074;-72
2022/02/21 06:39:22;;;;;;;8.80;5.63;;;;;;;;;;6241490;23;20012;-72
2022/02/21 06:41:49;;;;;;;5.45;4.30;;;;;;;;;;6214882;23;20036;-72
2022/02/21 06:44:15;;;;;;;5.90;5.30;;;;;;;;;;6214228;23;20031;-72
2022/02/21 06:46:41;;;;;;;6.80;5.78;;;;;;;;;;6189999;23;20365;-72
2022/02/21 06:49:07;;;;;;;7.47;6.47;;;;;;;;;;6241407;23;20568;-72
2022/02/21 06:51:36;;;;;;;6.22;5.63;;;;;;;;;;6165023;23;20612;-71
2022/02/21 06:54:05;;;;;;;7.07;6.20;;;;;;;;;;6241449;23;20453;-73
2022/02/21 06:56:31;;;;;;;6.30;4.82;;;;;;;;;;6204593;23;20044;-74
2022/02/21 06:58:57;;;;;;;6.35;5.60;;;;;;;;;;6237406;23;20484;-74
2022/02/21 07:01:23;;;;;;;4.70;4.30;;;;;;;;;;6187099;23;20043;-74
2022/02/21 07:03:50;;;;;;;5.80;5.25;;;;;;;;;;6238200;23;20512;-73
2022/02/21 07:06:16;;;;;;;5.63;4.50;;;;;;;;;;6239800;23;20533;-73
2022/02/21 07:08:43;;;;;;;6.05;4.82;;;;;;;;;;6237673;23;20012;-73
2022/02/21 07:11:09;;;;;;;4.22;3.85;;;;;;;;;;6189814;23;20067;-73
2022/02/21 07:13:35;;;;;;;5.03;4.57;;;;;;;;;;6164426;23;20023;-73
2022/02/21 07:16:01;;;;;;;4.72;4.38;;;;;;;;;;6164359;23;20023;-74
2022/02/21 07:18:27;;;;;;;5.40;4.75;;;;;;;;;;6164697;23;20040;-73
2022/02/21 07:20:53;;;;;;;3.22;2.95;;;;;;;;;;6165292;23;20517;-74
2022/02/21 07:23:18;;;;;;;4.43;4.03;;;;;;;;;;6241536;23;20022;-74
2022/02/21 07:25:44;;;;;;;4.15;3.85;;;;;;;;;;6190030;23;20012;-72
2022/02/21 07:28:10;;;;;;;5.18;4.50;;;;;;;;;;6189078;23;20019;-74
2022/02/21 07:30:36;;;;;;;5.50;4.63;;;;;;;;;;6165531;23;20024;-73
2022/02/21 07:33:02;;;;;;;4.88;4.28;;;;;;;;;;6214710;23;20007;-72
2022/02/21 07:35:28;;;;;;;4.72;4.20;;;;;;;;;;6189197;23;20020;-72
2022/02/21 07:37:55;;;;;;;7.70;4.50;;;;;;;;;;6189942;23;20031;-74
2022/02/21 07:40:21;;;;;;;5.72;5.00;;;;;;;;;;6239731;23;20182;-74
2022/02/21 07:42:52;;;;;;;6.07;4.75;;;;;;;;;;6215700;23;20042;-74
2022/02/21 07:45:19;;;;;;;5.18;4.63;;;;;;;;;;6192170;23;20098;-73
2022/02/21 07:47:45;;;;;;;5.78;5.28;;;;;;;;;;6192223;23;20050;-74
2022/02/21 07:50:12;;;;;;;6.18;5.00;;;;;;;;;;6244060;23;20016;-71
2022/02/21 07:52:38;;;;;;;5.85;5.32;;;;;;;;;;6241555;23;20019;-73
2022/02/21 07:55:04;;;;;;;5.10;4.70;;;;;;;;;;6212950;23;20020;-72
2022/02/21 07:57:30;;;;;;;5.72;5.22;;;;;;;;;;6210977;23;20056;-72
2022/02/21 07:59:57;;;;;;;5.10;4.03;;;;;;;;;;6214075;23;20318;-71
2022/02/21 08:02:23;;;;;;;5.50;5.10;;;;;;;;;;6240873;23;20449;-71
2022/02/21 08:04:51;;;;;;;6.78;5.72;;;;;;;;;;6214431;23;20007;-72
2022/02/21 08:07:17;;;;;;;7.38;6.55;;;;;;;;;;6240705;23;20048;-74
2022/02/21 08:09:43;;;;;;;4.72;4.32;;;;;;;;;;6239916;23;20656;-73
2022/02/21 08:12:09;;;;;;;6.72;5.53;;;;;;;;;;6188855;23;20055;-73
2022/02/21 08:14:35;;;;;;;5.88;5.32;;;;;;;;;;6241398;23;20015;-73
2022/02/21 08:17:01;;;;;;;4.75;4.38;;;;;;;;;;6242077;23;20016;-72
2022/02/21 08:19:27;;;;;;;7.75;6.00;;;;;;;;;;6212709;23;20008;-72
2022/02/21 08:21:53;;;;;;;9.20;5.57;;;;;;;;;;6214289;23;20012;-73
2022/02/21 08:24:19;;;;;;;6.95;5.78;;;;;;;;;;6213313;23;20051;-72
2022/02/21 08:26:45;;;;;;;5.18;4.68;;;;;;;;;;6240843;23;20043;-73
2022/02/21 08:29:11;;;;;;;5.68;5.25;;;;;;;;;;6213837;23;20016;-72
2022/02/21 08:31:38;;;;;;;7.45;5.22;;;;;;;;;;6242137;23;20106;-74
2022/02/21 08:34:04;;;;;;;6.75;5.28;;;;;;;;;;6242889;23;20019;-71
2022/02/21 08:36:30;;;;;;;7.43;5.47;;;;;;;;;;6240756;22;20028;-70
2022/02/21 08:38:56;;;;;;;4.63;4.28;;;;;;;;;;6240633;23;20008;-73
2022/02/21 08:41:21;;;;;;;6.57;6.07;;;;;;;;;;6240760;23;20047;-72
2022/02/21 08:43:47;;;;;;;7.85;5.88;;;;;;;;;;6239628;23;20008;-72
2022/02/21 08:46:14;;;;;;;7.28;5.50;;;;;;;;;;6241030;23;20038;-72
2022/02/21 08:48:40;;;;;;;6.03;4.93;;;;;;;;;;6241313;23;20508;-72
2022/02/21 08:51:08;;;;;;;5.45;4.47;;;;;;;;;;6240725;23;20456;-72
2022/02/21 08:53:34;;;;;;;3.83;3.17;;;;;;;;;;6214558;23;20012;-72
2022/02/21 08:55:59;;;;;;;8.70;5.13;;;;;;;;;;6212889;23;20058;-74
2022/02/21 08:58:25;;;;;;;5.63;5.03;;;;;;;;;;6188627;23;20015;-74
2022/02/21 09:00:51;;;;;;;6.82;6.22;;;;;;;;;;6241353;23;20035;-74
2022/02/21 09:03:18;;;;;;;10.23;5.72;;;;;;;;;;6240894;23;20014;-73
2022/02/21 09:05:44;;;;;;;5.90;5.28;;;;;;;;;;6240649;23;20062;-73
2022/02/21 09:08:10;;;;;;;9.73;5.65;;;;;;;;;;6240719;23;20420;-73
2022/02/21 09:10:36;;;;;;;8.75;4.78;;;;;;;;;;6188967;23;20015;-73
2022/02/21 09:13:01;;;;;;;6.18;4.75;;;;;;;;;;6240000;23;20008;-73
2022/02/21 09:15:27;;;;;;;7.20;5.13;;;;;;;;;;6213745;23;20355;-73
2022/02/21 09:17:53;;;;;;;8.00;4.88;;;;;;;;;;6189386;23;20012;-72
2022/02/21 09:20:19;;;;;;;9.55;5.97;;;;;;;;;;6240356;23;20016;-72
2022/02/21 09:22:45;;;;;;;10.35;6.15;;;;;;;;;;6213201;23;20745;-71
2022/02/21 09:25:11;;;;;;;8.00;5.63;;;;;;;;;;6212995;23;20063;-72
2022/02/21 09:27:38;;;;;;;11.18;6.55;;;;;;;;;;6239813;23;20091;-73
2022/02/21 09:30:04;;;;;;;7.65;4.85;;;;;;;;;;6163020;23;20020;-74
2022/02/21 09:32:30;;;;;;;4.47;3.80;;;;;;;;;;6213179;23;20448;-74
2022/02/21 09:34:56;;;;;;;6.20;4.63;;;;;;;;;;6188487;23;20075;-73
2022/02/21 09:37:22;;;;;;;5.47;4.78;;;;;;;;;;6188297;23;20083;-73
2022/02/21 09:39:48;;;;;;;6.95;5.22;;;;;;;;;;6213264;23;20019;-73
2022/02/21 09:42:14;;;;;;;5.78;5.28;;;;;;;;;;6213933;23;20039;-73
2022/02/21 09:44:41;;;;;;;8.20;5.80;;;;;;;;;;6239796;23;20078;-72
2022/02/21 09:47:06;;;;;;;6.05;5.50;;;;;;;;;;6188131;23;20012;-72
2022/02/21 09:49:32;;;;;;;8.07;6.32;;;;;;;;;;6238108;23;20437;-74
2022/02/21 09:51:58;;;;;;;6.20;5.22;;;;;;;;;;6241301;23;20028;-76
2022/02/21 09:54:24;;;;;;;6.50;5.82;;;;;;;;;;6214147;23;20004;-75
2022/02/21 09:56:51;;;;;;;10.15;5.80;;;;;;;;;;6239042;23;20029;-74
2022/02/21 09:59:17;;;;;;;5.40;4.90;;;;;;;;;;6239920;23;20480;-74
2022/02/21 10:01:44;;;;;;;5.53;5.03;;;;;;;;;;6213470;23;20038;-74
2022/02/21 10:04:11;;;;;;;8.18;6.03;;;;;;;;;;6239854;23;20012;-74
2022/02/21 10:06:37;;;;;;;6.15;5.35;;;;;;;;;;6213108;23;20016;-72
2022/02/21 10:09:08;;;;;;;6.72;6.03;;;;;;;;;;6213035;23;20008;-74
2022/02/21 10:11:37;;;;;;;7.18;5.53;;;;;;;;;;6213096;23;20689;-73
2022/02/21 10:14:12;;;;;;;6.95;6.32;;;;;;;;;;6239730;23;20044;-75
2022/02/21 10:16:38;;;;;;;11.70;6.50;;;;;;;;;;6213191;23;20450;-73
2022/02/21 10:19:10;;;;;;;8.07;5.35;;;;;;;;;;6213351;23;20127;-76
2022/02/21 10:21:48;;;;;;;9.80;7.63;;;;;;;;;;6213592;23;20039;-73
2022/02/21 10:24:15;;;;;;;7.43;5.38;;;;;;;;;;6211457;23;20077;-73
2022/02/21 10:26:44;;;;;;;5.53;5.07;;;;;;;;;;6209414;23;20119;-74
2022/02/21 10:29:10;;;;;;;7.38;5.80;;;;;;;;;;6187068;23;20534;-74
2022/02/21 10:31:36;;;;;;;8.13;5.90;;;;;;;;;;6186221;23;20028;-73
2022/02/21 10:34:03;;;;;;;10.93;7.93;;;;;;;;;;6187230;23;20008;-72
2022/02/21 10:36:34;;;;;;;7.35;5.93;;;;;;;;;;6239606;23;20028;-72
2022/02/21 10:39:02;;;;;;;7.90;3.65;;;;;;;;;;6239400;23;20020;-72
2022/02/21 10:41:37;;;;;;;9.73;6.60;;;;;;;;;;6212235;23;20008;-72
2022/02/21 10:44:22;;;;;;;9.98;5.13;;;;;;;;;;6240524;23;20405;-73
2022/02/21 10:46:58;;;;;;;9.00;5.72;;;;;;;;;;6241849;23;20012;-73
2022/02/21 10:49:24;;;;;;;9.27;6.25;;;;;;;;;;6213992;23;20012;-73
2022/02/21 10:51:49;;;;;;;9.88;6.00;;;;;;;;;;6214573;23;20490;-73
2022/02/21 10:54:16;;;;;;;6.28;5.68;;;;;;;;;;6240441;23;20008;-72
2022/02/21 10:56:42;;;;;;;5.78;4.53;;;;;;;;;;6239943;23;20016;-72
2022/02/21 10:59:18;;;;;;;7.25;6.22;;;;;;;;;;6241127;23;20012;-72
2022/02/21 11:01:43;;;;;;;10.68;5.85;;;;;;;;;;6214934;23;20040;-72
2022/02/21 11:04:10;;;;;;;7.22;6.47;;;;;;;;;;6213823;23;20016;-72
2022/02/21 11:06:35;;;;;;;8.48;5.78;;;;;;;;;;6214388;23;20016;-73
2022/02/21 11:09:01;;;;;;;5.53;5.03;;;;;;;;;;6189127;23;20468;-72
2022/02/21 11:11:27;;;;;;;6.65;5.40;;;;;;;;;;6241081;23;20024;-73
2022/02/21 11:13:53;;;;;;;6.22;5.43;;;;;;;;;;6214884;23;20012;-73
2022/02/21 11:16:19;;;;;;;6.20;5.60;;;;;;;;;;6240817;23;20015;-73
2022/02/21 11:18:47;;;;;;;7.32;5.53;;;;;;;;;;6214096;23;20116;-73
2022/02/21 11:21:13;;;;;;;5.50;4.03;;;;;;;;;;6241007;23;20023;-73
2022/02/21 11:23:39;;;;;;;4.93;4.32;;;;;;;;;;6214102;23;20360;-72
2022/02/21 11:26:07;;;;;;;6.75;5.00;;;;;;;;;;6240685;23;20018;-72
2022/02/21 11:28:34;;;;;;;5.40;4.82;;;;;;;;;;6214134;23;20444;-72
2022/02/21 11:31:00;;;;;;;7.20;4.88;;;;;;;;;;6189284;23;20024;-73
2022/02/21 11:33:28;;;;;;;6.38;4.70;;;;;;;;;;6214627;23;20344;-74
2022/02/21 11:36:06;;;;;;;6.85;5.63;;;;;;;;;;6241124;23;20050;-73
2022/02/21 11:38:33;;;;;;;6.57;4.03;;;;;;;;;;6213947;23;20440;-73
2022/02/21 11:41:04;;;;;;;5.55;3.97;;;;;;;;;;6241239;23;20012;-73
2022/02/21 11:43:33;;;;;;;5.13;4.32;;;;;;;;;;6240864;23;20695;-74
2022/02/21 11:46:06;;;;;;;5.30;4.80;;;;;;;;;;6241431;23;20809;-73
2022/02/21 11:48:51;;;;;;;5.85;5.22;;;;;;;;;;6240847;23;20011;-74
2022/02/21 11:51:24;;;;;;;8.15;5.18;;;;;;;;;;6213821;23;20019;-74
2022/02/21 11:53:50;;;;;;;4.88;4.38;;;;;;;;;;6240712;23;20018;-75
2022/02/21 11:56:16;;;;;;;8.75;5.63;;;;;;;;;;6187405;23;20044;-74
2022/02/21 11:58:45;;;;;;;5.28;4.78;;;;;;;;;;6213857;23;20019;-74
2022/02/21 12:01:13;;;;;;;10.07;4.40;;;;;;;;;;6241881;23;20022;-74
2022/02/21 12:03:39;;;;;;;5.53;4.90;;;;;;;;;;6216490;23;20513;-73
2022/02/21 12:06:05;;;;;;;8.13;5.60;;;;;;;;;;6241783;23;20016;-74
2022/02/21 12:08:31;;;;;;;6.45;4.28;;;;;;;;;;6213343;23;20437;-73
2022/02/21 12:11:17;;;;;;;5.45;4.88;;;;;;;;;;6213859;23;20028;-73
2022/02/21 12:13:49;;;;;;;5.38;4.88;;;;;;;;;;6189019;23;20020;-73
2022/02/21 12:16:15;;;;;;;6.93;5.60;;;;;;;;;;6240502;23;20008;-74
2022/02/21 12:18:45;;;;;;;7.93;5.07;;;;;;;;;;6240848;23;20020;-72
2022/02/21 12:21:15;;;;;;;5.72;5.13;;;;;;;;;;6240379;23;20440;-74
2022/02/21 12:24:01;;;;;;;8.02;5.20;;;;;;;;;;6213923;23;20012;-74
2022/02/21 12:26:30;;;;;;;5.65;4.32;;;;;;;;;;6213768;23;20484;-74
2022/02/21 12:29:09;;;;;;;5.65;4.65;;;;;;;;;;6241548;23;20047;-73
2022/02/21 12:31:39;;;;;;;5.35;4.85;;;;;;;;;;6214079;23;20464;-72
2022/02/21 12:34:05;;;;;;;6.93;4.78;;;;;;;;;;6213772;23;20012;-72
2022/02/21 12:36:35;;;;;;;4.55;4.15;;;;;;;;;;6239852;23;20027;-73
2022/02/21 12:39:01;;;;;;;6.88;4.90;;;;;;;;;;6240080;23;20016;-72
2022/02/21 12:41:30;;;;;;;6.97;5.13;;;;;;;;;;6239521;23;20027;-71
2022/02/21 12:44:02;;;;;;;5.78;5.18;;;;;;;;;;6240456;23;20023;-72
2022/02/21 12:46:36;;;;;;;8.73;5.00;;;;;;;;;;6213731;23;20019;-73
2022/02/21 12:49:04;;;;;;;9.07;5.63;;;;;;;;;;6215244;23;20004;-72
2022/02/21 12:51:31;;;;;;;7.32;4.97;;;;;;;;;;6212695;23;20020;-72
2022/02/21 12:53:57;;;;;;;6.90;4.72;;;;;;;;;;6239655;23;20016;-72
2022/02/21 12:56:23;;;;;;;3.65;3.38;;;;;;;;;;6237767;23;20050;-72
2022/02/21 12:58:50;;;;;;;6.68;4.43;;;;;;;;;;6212707;23;20075;-71
2022/02/21 13:01:18;;;;;;;5.53;4.40;;;;;;;;;;6213240;23;20019;-72
2022/02/21 13:03:54;;;;;;;5.00;4.38;;;;;;;;;;6213311;23;20008;-72
2022/02/21 13:06:21;;;;;;;5.00;4.50;;;;;;;;;;6212921;23;20073;-72
2022/02/21 13:08:47;;;;;;;10.98;5.35;;;;;;;;;;6239428;23;20016;-71
2022/02/21 13:11:23;;;;;;;6.05;4.15;;;;;;;;;;6211226;23;20134;-72
2022/02/21 13:13:49;;;;;;;4.40;3.97;;;;;;;;;;6239886;23;20087;-72
2022/02/21 13:16:15;;;;;;;5.30;4.40;;;;;;;;;;6213007;23;20039;-73
2022/02/21 13:18:51;;;;;;;4.10;3.70;;;;;;;;;;6188217;23;20019;-73
2022/02/21 13:21:27;;;;;;;4.75;4.18;;;;;;;;;;6239349;23;20515;-72
2022/02/21 13:23:53;;;;;;;4.45;4.05;;;;;;;;;;6211518;23;20012;-71
2022/02/21 13:26:19;;;;;;;4.13;3.72;;;;;;;;;;6213242;23;20016;-71
2022/02/21 13:28:45;;;;;;;8.43;4.60;;;;;;;;;;6239738;23;20019;-71
2022/02/21 13:31:11;;;;;;;4.60;4.20;;;;;;;;;;6240136;23;20348;-73
2022/02/21 13:33:40;;;;;;;5.93;5.43;;;;;;;;;;6212805;23;20035;-71
2022/02/21 13:36:06;;;;;;;7.22;5.30;;;;;;;;;;6239351;23;20391;-72
2022/02/21 13:38:33;;;;;;;5.97;4.88;;;;;;;;;;6239032;23;20012;-71
2022/02/21 13:40:59;;;;;;;4.40;4.00;;;;;;;;;;6240224;23;20020;-71
2022/02/21 13:43:25;;;;;;;5.28;4.72;;;;;;;;;;6238938;23;20114;-71
2022/02/21 13:45:52;;;;;;;5.68;4.80;;;;;;;;;;6213108;23;20043;-72
2022/02/21 13:48:23;;;;;;;5.45;4.78;;;;;;;;;;6238878;23;20467;-72
2022/02/21 13:50:50;;;;;;;8.40;5.47;;;;;;;;;;6239578;23;20102;-72
2022/02/21 13:53:22;;;;;;;5.00;4.32;;;;;;;;;;6238770;23;20518;-72
2022/02/21 13:56:00;;;;;;;7.53;4.97;;;;;;;;;;6239744;23;20169;-71
2022/02/21 13:58:27;;;;;;;6.28;5.32;;;;;;;;;;6238611;23;20016;-71
2022/02/21 14:00:53;;;;;;;9.55;4.57;;;;;;;;;;6240248;23;20008;-72
2022/02/21 14:03:18;;;;;;;6.47;5.05;;;;;;;;;;6239142;23;20443;-72
2022/02/21 14:05:56;;;;;;;7.90;5.70;;;;;;;;;;6213159;23;20471;-74
2022/02/21 14:08:34;;;;;;;5.75;4.68;;;;;;;;;;6213521;23;20107;-72
2022/02/21 14:11:00;;;;;;;5.72;4.90;;;;;;;;;;6238883;23;20460;-74
2022/02/21 14:13:26;;;;;;;4.47;4.18;;;;;;;;;;6239532;23;20102;-73
2022/02/21 14:15:54;;;;;;;4.18;3.80;;;;;;;;;;6213072;23;20023;-72
2022/02/21 14:18:21;;;;;;;6.10;5.00;;;;;;;;;;6240759;23;20142;-74
2022/02/21 14:20:48;;;;;;;8.70;5.22;;;;;;;;;;6241075;23;20027;-73
2022/02/21 14:23:15;;;;;;;4.85;4.50;;;;;;;;;;6240981;23;20008;-74
2022/02/21 14:25:41;;;;;;;6.15;5.57;;;;;;;;;;6194335;23;20058;-73
2022/02/21 14:28:09;;;;;;;5.68;4.47;;;;;;;;;;6220101;23;20012;-74
2022/02/21 14:30:35;;;;;;;6.20;4.53;;;;;;;;;;6195290;23;20027;-73
2022/02/21 14:33:02;;;;;;;4.60;4.22;;;;;;;;;;6218459;23;20062;-73
2022/02/21 14:35:30;;;;;;;5.90;5.10;;;;;;;;;;6242231;23;20051;-73
2022/02/21 14:37:56;;;;;;;6.28;5.70;;;;;;;;;;6215219;23;20082;-73
2022/02/21 14:40:22;;;;;;;6.70;5.35;;;;;;;;;;6242669;23;20016;-72
2022/02/21 14:42:48;;;;;;;6.18;5.57;;;;;;;;;;6216632;23;20016;-73